createdAt,value
2023-09-10T00:00:41.987Z,19.80
2023-09-10T00:03:09.313Z,19.80
2023-09-10T00:05:36.661Z,19.80
2023-09-10T00:08:04.982Z,19.80
2023-09-10T00:10:35.262Z,19.90
2023-09-10T00:13:04.634Z,19.90
2023-09-10T00:15:32.167Z,19.90
2023-09-10T00:17:59.380Z,19.90
2023-09-10T00:20:28.484Z,19.80
2023-09-10T00:22:58.108Z,19.80
2023-09-10T00:25:26.216Z,19.70
2023-09-10T00:27:53.921Z,19.60
2023-09-10T00:30:21.238Z,19.50
2023-09-10T00:32:48.470Z,19.50
2023-09-10T00:35:16.127Z,19.40
2023-09-10T00:37:43.365Z,19.40
2023-09-10T00:40:11.452Z,19.30
2023-09-10T00:42:39.386Z,19.30
2023-09-10T00:45:10.476Z,19.30
2023-09-10T00:47:47.311Z,19.20
2023-09-10T00:50:19.011Z,19.10
2023-09-10T00:52:56.362Z,19.10
2023-09-10T00:55:25.760Z,19.10
2023-09-10T00:57:53.810Z,19.00
2023-09-10T01:00:23.192Z,19.00
2023-09-10T01:02:51.150Z,19.00
2023-09-10T01:05:19.073Z,19.00
2023-09-10T01:07:47.007Z,19.00
2023-09-10T01:10:15.028Z,19.10
2023-09-10T01:12:56.022Z,19.10
2023-09-10T01:15:52.197Z,19.10
2023-09-10T01:18:31.466Z,19.10
2023-09-10T01:21:37.435Z,19.10
2023-09-10T01:24:41.108Z,19.00
2023-09-10T01:27:08.460Z,19.10
2023-09-10T01:29:35.739Z,19.10
2023-09-10T01:32:18.119Z,19.00
2023-09-10T01:35:00.112Z,19.00
2023-09-10T01:37:46.504Z,19.00
2023-09-10T01:40:21.989Z,18.90
2023-09-10T01:42:52.238Z,18.90
2023-09-10T01:45:20.815Z,18.80
2023-09-10T01:47:48.334Z,18.80
2023-09-10T01:50:17.067Z,18.80
2023-09-10T01:52:44.222Z,18.70
2023-09-10T01:55:11.291Z,18.60
2023-09-10T01:57:38.407Z,18.60
2023-09-10T02:00:09.208Z,18.70
2023-09-10T02:02:36.494Z,18.60
2023-09-10T02:05:04.018Z,18.60
2023-09-10T02:07:31.315Z,18.60
2023-09-10T02:09:59.698Z,18.50
2023-09-10T02:12:26.751Z,18.50
2023-09-10T02:14:54.095Z,18.50
2023-09-10T02:17:21.162Z,18.50
2023-09-10T02:19:49.010Z,18.40
2023-09-10T02:22:16.220Z,18.30
2023-09-10T02:24:43.272Z,18.30
2023-09-10T02:27:10.364Z,18.30
2023-09-10T02:29:37.474Z,18.30
2023-09-10T02:32:04.711Z,18.40
2023-09-10T02:34:32.594Z,18.40
2023-09-10T02:37:00.925Z,18.30
2023-09-10T02:39:28.608Z,18.40
2023-09-10T02:41:55.732Z,18.40
2023-09-10T02:44:22.845Z,18.30
2023-09-10T02:46:49.988Z,18.40
2023-09-10T02:49:18.879Z,18.40
2023-09-10T02:51:46.100Z,18.40
2023-09-10T02:54:13.453Z,18.30
2023-09-10T02:56:40.757Z,18.30
2023-09-10T02:59:07.977Z,18.30
2023-09-10T03:01:35.270Z,18.30
2023-09-10T03:04:02.515Z,18.30
2023-09-10T03:06:29.605Z,18.30
2023-09-10T03:08:57.107Z,18.20
2023-09-10T03:11:24.108Z,18.20
2023-09-10T03:13:51.284Z,18.20
2023-09-10T03:16:18.409Z,18.10
2023-09-10T03:18:45.934Z,18.00
2023-09-10T03:21:13.104Z,18.00
2023-09-10T03:23:40.223Z,17.90
2023-09-10T03:26:13.469Z,17.90
2023-09-10T03:28:42.475Z,17.90
2023-09-10T03:31:09.721Z,17.90
2023-09-10T03:33:37.762Z,17.90
2023-09-10T03:36:07.187Z,17.80
2023-09-10T03:38:34.464Z,17.80
2023-09-10T03:41:01.663Z,17.70
2023-09-10T03:43:28.643Z,17.70
2023-09-10T03:45:56.758Z,17.60
2023-09-10T03:48:23.957Z,17.60
2023-09-10T03:50:50.965Z,17.50
2023-09-10T03:53:18.542Z,17.60
2023-09-10T03:55:45.798Z,17.50
2023-09-10T03:58:12.919Z,17.50
2023-09-10T04:00:40.022Z,17.40
2023-09-10T04:03:07.315Z,17.30
2023-09-10T04:05:34.484Z,17.30
2023-09-10T04:08:01.509Z,17.20
2023-09-10T04:10:28.820Z,17.20
2023-09-10T04:12:55.881Z,17.10
2023-09-10T04:15:22.967Z,17.00
2023-09-10T04:17:50.259Z,17.00
2023-09-10T04:20:17.686Z,17.00
2023-09-10T04:22:44.759Z,17.00
2023-09-10T04:25:11.790Z,16.90
2023-09-10T04:27:39.223Z,16.90
2023-09-10T04:30:07.871Z,16.90
2023-09-10T04:32:35.213Z,16.90
2023-09-10T04:35:06.553Z,16.90
2023-09-10T04:37:35.458Z,16.90
2023-09-10T04:40:07.987Z,16.90
2023-09-10T04:42:36.200Z,16.90
2023-09-10T04:45:07.196Z,16.90
2023-09-10T04:47:34.633Z,16.90
2023-09-10T04:50:01.730Z,17.00
2023-09-10T04:52:28.842Z,17.10
2023-09-10T04:54:55.909Z,17.20
2023-09-10T04:57:22.873Z,17.20
2023-09-10T04:59:50.096Z,17.30
2023-09-10T05:02:17.259Z,17.30
2023-09-10T05:04:44.484Z,17.40
2023-09-10T05:07:11.457Z,17.60
2023-09-10T05:09:38.434Z,17.70
2023-09-10T05:12:06.203Z,17.80
2023-09-10T05:14:33.255Z,17.90
2023-09-10T05:17:00.464Z,18.00
2023-09-10T05:19:27.664Z,18.00
2023-09-10T05:21:54.704Z,18.10
2023-09-10T05:24:21.735Z,18.30
2023-09-10T05:26:48.740Z,18.40
2023-09-10T05:29:16.103Z,18.60
2023-09-10T05:31:43.168Z,18.80
2023-09-10T05:34:10.514Z,19.00
2023-09-10T05:36:38.004Z,19.20
2023-09-10T05:39:05.253Z,19.40
2023-09-10T05:41:32.832Z,19.50
2023-09-10T05:44:00.210Z,19.70
2023-09-10T05:46:27.532Z,19.90
2023-09-10T05:48:54.644Z,20.00
2023-09-10T05:51:22.142Z,20.20
2023-09-10T05:53:49.480Z,20.40
2023-09-10T05:56:16.642Z,20.60
2023-09-10T05:58:44.301Z,20.80
2023-09-10T06:01:11.425Z,20.90
2023-09-10T06:03:38.660Z,21.10
2023-09-10T06:06:06.373Z,21.30
2023-09-10T06:08:33.542Z,21.50
2023-09-10T06:11:00.822Z,21.60
2023-09-10T06:13:29.492Z,21.80
2023-09-10T06:15:56.662Z,22.00
2023-09-10T06:18:24.115Z,22.10
2023-09-10T06:20:51.274Z,22.30
2023-09-10T06:23:18.579Z,22.40
2023-09-10T06:25:47.120Z,22.50
2023-09-10T06:28:14.408Z,22.70
2023-09-10T06:30:41.669Z,22.90
2023-09-10T06:33:09.770Z,23.10
2023-09-10T06:35:36.950Z,23.30
2023-09-10T06:38:04.356Z,23.50
2023-09-10T06:40:31.559Z,23.70
2023-09-10T06:42:58.824Z,23.90
2023-09-10T06:45:25.766Z,24.00
2023-09-10T06:47:52.944Z,24.20
2023-09-10T06:50:20.172Z,24.40
2023-09-10T06:52:47.214Z,24.60
2023-09-10T06:55:15.421Z,24.80
2023-09-10T06:57:42.724Z,24.90
2023-09-10T07:00:11.039Z,25.00
2023-09-10T07:02:38.136Z,25.00
2023-09-10T07:05:05.591Z,25.20
2023-09-10T07:07:32.749Z,25.30
2023-09-10T07:10:00.939Z,25.40
2023-09-10T07:12:27.973Z,25.50
2023-09-10T07:14:55.095Z,25.70
2023-09-10T07:17:22.310Z,25.90
2023-09-10T07:19:49.378Z,26.00
2023-09-10T07:22:17.054Z,26.10
2023-09-10T07:24:44.215Z,26.20
2023-09-10T07:27:11.578Z,26.30
2023-09-10T07:29:38.698Z,26.30
2023-09-10T07:32:06.274Z,26.50
2023-09-10T07:34:33.525Z,26.50
2023-09-10T07:37:00.717Z,26.70
2023-09-10T07:39:32.338Z,26.90
2023-09-10T07:42:00.311Z,27.00
2023-09-10T07:44:27.380Z,27.10
2023-09-10T07:46:54.397Z,27.20
2023-09-10T07:49:21.701Z,27.40
2023-09-10T07:51:49.055Z,27.60
2023-09-10T07:54:16.227Z,27.80
2023-09-10T07:56:44.236Z,27.90
2023-09-10T07:59:13.340Z,28.10
2023-09-10T08:01:40.803Z,28.20
2023-09-10T08:04:08.918Z,28.40
2023-09-10T08:06:36.314Z,28.50
2023-09-10T08:09:04.553Z,28.60
2023-09-10T08:11:33.854Z,28.80
2023-09-10T08:14:01.259Z,28.90
2023-09-10T08:16:28.571Z,29.00
2023-09-10T08:18:55.552Z,29.10
2023-09-10T08:21:22.893Z,29.30
2023-09-10T08:23:50.293Z,29.40
2023-09-10T08:26:17.446Z,29.50
2023-09-10T08:28:44.971Z,29.60
2023-09-10T08:31:12.276Z,29.80
2023-09-10T08:33:39.373Z,30.00
2023-09-10T08:36:06.633Z,30.10
2023-09-10T08:38:33.933Z,30.20
2023-09-10T08:41:01.487Z,30.10
2023-09-10T08:43:57.157Z,30.20
2023-09-10T08:46:31.889Z,30.10
2023-09-10T08:49:01.123Z,30.10
2023-09-10T08:51:30.066Z,30.00
2023-09-10T08:54:01.108Z,30.10
2023-09-10T08:56:28.440Z,30.40
2023-09-10T08:58:58.671Z,30.60
2023-09-10T09:01:26.527Z,30.70
2023-09-10T09:03:54.137Z,30.80
2023-09-10T09:06:22.696Z,31.10
2023-09-10T09:08:56.096Z,31.20
2023-09-10T09:11:27.479Z,31.30
2023-09-10T09:13:58.367Z,31.40
2023-09-10T09:16:25.796Z,31.50
2023-09-10T09:18:53.672Z,31.50
2023-09-10T09:21:25.013Z,31.60
2023-09-10T09:24:03.152Z,31.70
2023-09-10T09:26:31.768Z,31.60
2023-09-10T09:28:59.811Z,31.60
2023-09-10T09:31:27.540Z,31.70
2023-09-10T09:33:55.468Z,31.80
2023-09-10T09:36:28.931Z,31.90
2023-09-10T09:38:58.165Z,32.00
2023-09-10T09:41:25.684Z,32.10
2023-09-10T09:43:53.287Z,32.20
2023-09-10T09:46:22.186Z,32.40
2023-09-10T09:48:49.498Z,32.40
2023-09-10T09:51:17.324Z,32.40
2023-09-10T09:53:45.644Z,32.30
2023-09-10T09:56:17.357Z,32.20
2023-09-10T09:58:47.726Z,32.30
2023-09-10T10:01:14.800Z,32.40
2023-09-10T10:03:42.333Z,32.10
2023-09-10T10:06:09.697Z,32.20
2023-09-10T10:08:39.060Z,32.30
2023-09-10T10:11:06.618Z,32.60
2023-09-10T10:13:35.149Z,32.50
2023-09-10T10:16:03.995Z,32.50
2023-09-10T10:18:31.948Z,32.50
2023-09-10T10:21:00.494Z,32.50
2023-09-10T10:23:28.811Z,32.50
2023-09-10T10:26:01.633Z,32.50
2023-09-10T10:28:29.161Z,32.70
2023-09-10T10:31:12.194Z,32.40
2023-09-10T10:34:07.057Z,32.50
2023-09-10T10:37:00.779Z,32.60
2023-09-10T10:39:50.000Z,32.80
2023-09-10T10:42:26.458Z,33.00
2023-09-10T10:44:54.064Z,32.60
2023-09-10T10:47:25.373Z,32.30
2023-09-10T10:49:55.393Z,32.10
2023-09-10T10:52:30.709Z,31.90
2023-09-10T10:54:58.949Z,31.70
2023-09-10T10:57:29.190Z,31.60
2023-09-10T10:59:56.546Z,31.70
2023-09-10T11:02:25.058Z,31.70
2023-09-10T11:05:02.900Z,31.70
2023-09-10T11:07:32.575Z,31.60
2023-09-10T11:10:30.768Z,31.60
2023-09-10T11:13:09.805Z,31.80
2023-09-10T11:15:37.250Z,31.90
2023-09-10T11:18:38.740Z,32.00
2023-09-10T11:21:14.874Z,32.20
2023-09-10T11:23:57.677Z,31.90
2023-09-10T11:26:24.675Z,31.70
2023-09-10T11:28:59.232Z,31.50
2023-09-10T11:31:37.427Z,31.60
2023-09-10T11:34:19.602Z,31.30
2023-09-10T11:36:56.273Z,31.00
2023-09-10T11:39:23.914Z,30.90
2023-09-10T11:41:56.798Z,30.80
2023-09-10T11:44:24.228Z,30.70
2023-09-10T11:46:55.839Z,30.40
2023-09-10T11:49:26.085Z,30.40
2023-09-10T11:51:57.147Z,30.70
2023-09-10T11:54:24.789Z,30.90
2023-09-10T11:56:56.866Z,31.10
2023-09-10T11:59:28.511Z,31.30
2023-09-10T12:01:56.921Z,31.30
2023-09-10T12:04:34.610Z,31.20
2023-09-10T12:07:03.896Z,31.10
2023-09-10T12:09:32.540Z,31.10
2023-09-10T12:12:18.287Z,31.20
2023-09-10T12:14:45.596Z,31.20
2023-09-10T12:17:13.323Z,31.10
2023-09-10T12:19:41.981Z,31.30
2023-09-10T12:22:12.102Z,31.50
2023-09-10T12:24:40.114Z,31.60
2023-09-10T12:27:07.737Z,31.50
2023-09-10T12:29:36.023Z,31.40
2023-09-10T12:32:04.332Z,31.30
2023-09-10T12:34:31.619Z,31.30
2023-09-10T12:37:02.064Z,31.30
2023-09-10T12:39:29.295Z,31.40
2023-09-10T12:42:03.039Z,31.30
2023-09-10T12:44:32.629Z,30.90
2023-09-10T12:47:00.597Z,30.70
2023-09-10T12:49:28.137Z,30.60
2023-09-10T12:51:55.562Z,30.70
2023-09-10T12:54:22.667Z,30.80
2023-09-10T12:56:53.241Z,31.00
2023-09-10T12:59:22.452Z,31.00
2023-09-10T13:01:51.197Z,31.00
2023-09-10T13:04:19.467Z,31.10
2023-09-10T13:06:46.961Z,31.10
2023-09-10T13:09:14.547Z,31.20
2023-09-10T13:11:43.056Z,31.30
2023-09-10T13:14:10.027Z,31.30
2023-09-10T13:16:37.597Z,31.30
2023-09-10T13:19:05.068Z,31.20
2023-09-10T13:21:32.460Z,31.00
2023-09-10T13:23:59.466Z,30.90
2023-09-10T13:26:26.911Z,30.90
2023-09-10T13:28:54.503Z,30.90
2023-09-10T13:31:22.803Z,30.90
2023-09-10T13:33:51.697Z,31.00
2023-09-10T13:36:18.797Z,31.10
2023-09-10T13:38:46.043Z,31.10
2023-09-10T13:41:13.335Z,31.20
2023-09-10T13:43:41.166Z,31.20
2023-09-10T13:46:09.155Z,31.20
2023-09-10T13:48:36.294Z,31.20
2023-09-10T13:51:03.645Z,31.20
2023-09-10T13:53:31.617Z,31.20
2023-09-10T13:55:59.028Z,31.10
2023-09-10T13:58:26.292Z,31.10
2023-09-10T14:00:53.459Z,30.90
2023-09-10T14:03:27.550Z,30.90
2023-09-10T14:05:56.338Z,30.90
2023-09-10T14:08:23.562Z,30.90
2023-09-10T14:10:50.837Z,30.90
2023-09-10T14:13:19.025Z,30.90
2023-09-10T14:15:46.435Z,31.00
2023-09-10T14:18:13.914Z,31.00
2023-09-10T14:20:41.298Z,31.00
2023-09-10T14:23:08.704Z,30.90
2023-09-10T14:25:35.953Z,30.80
2023-09-10T14:28:03.256Z,30.80
2023-09-10T14:30:30.594Z,30.80
2023-09-10T14:32:57.823Z,30.70
2023-09-10T14:35:25.116Z,30.70
2023-09-10T14:37:52.143Z,30.70
2023-09-10T14:40:19.628Z,30.60
2023-09-10T14:42:46.756Z,30.50
2023-09-10T14:45:14.037Z,30.50
2023-09-10T14:47:41.077Z,30.50
2023-09-10T14:50:14.331Z,30.30
2023-09-10T14:52:45.187Z,30.20
2023-09-10T14:55:13.618Z,30.10
2023-09-10T14:57:40.912Z,30.20
2023-09-10T15:00:08.628Z,30.20
2023-09-10T15:02:38.237Z,30.10
2023-09-10T15:05:10.656Z,30.10
2023-09-10T15:07:37.925Z,30.00
2023-09-10T15:10:05.873Z,30.10
2023-09-10T15:12:32.921Z,30.10
2023-09-10T15:15:00.127Z,30.10
2023-09-10T15:17:28.026Z,30.20
2023-09-10T15:19:55.318Z,30.10
2023-09-10T15:22:22.515Z,30.00
2023-09-10T15:24:49.679Z,30.10
2023-09-10T15:27:16.872Z,30.00
2023-09-10T15:29:43.951Z,30.00
2023-09-10T15:32:11.027Z,30.00
2023-09-10T15:34:38.191Z,30.00
2023-09-10T15:37:05.428Z,30.00
2023-09-10T15:39:32.881Z,30.00
2023-09-10T15:42:00.108Z,30.10
2023-09-10T15:44:27.343Z,30.10
2023-09-10T15:46:54.685Z,30.10
2023-09-10T15:49:22.044Z,30.10
2023-09-10T15:51:50.565Z,30.00
2023-09-10T15:54:18.295Z,30.10
2023-09-10T15:56:46.116Z,30.20
2023-09-10T15:59:15.043Z,30.20
2023-09-10T16:01:42.215Z,30.30
2023-09-10T16:04:09.901Z,30.40
2023-09-10T16:06:38.125Z,30.40
2023-09-10T16:09:07.113Z,30.40
2023-09-10T16:11:35.234Z,30.40
2023-09-10T16:14:02.436Z,30.40
2023-09-10T16:16:29.673Z,30.40
2023-09-10T16:18:59.997Z,30.40
2023-09-10T16:21:31.138Z,30.30
2023-09-10T16:23:58.342Z,30.30
2023-09-10T16:26:25.493Z,30.20
2023-09-10T16:28:52.522Z,30.10
2023-09-10T16:31:19.634Z,30.10
2023-09-10T16:33:46.712Z,30.00
2023-09-10T16:36:13.680Z,30.00
2023-09-10T16:38:40.983Z,29.90
2023-09-10T16:41:08.407Z,29.80
2023-09-10T16:43:35.527Z,29.70
2023-09-10T16:46:02.632Z,29.60
2023-09-10T16:48:29.880Z,29.60
2023-09-10T16:50:58.181Z,29.40
2023-09-10T16:53:25.507Z,29.20
2023-09-10T16:55:54.123Z,29.10
2023-09-10T16:58:23.973Z,29.00
2023-09-10T17:00:51.543Z,29.00
2023-09-10T17:03:18.818Z,28.90
2023-09-10T17:05:46.197Z,28.80
2023-09-10T17:08:13.337Z,28.60
2023-09-10T17:10:41.436Z,28.60
2023-09-10T17:13:08.793Z,28.50
2023-09-10T17:15:37.793Z,28.40
2023-09-10T17:18:05.646Z,28.20
2023-09-10T17:20:35.006Z,28.10
2023-09-10T17:23:02.205Z,28.00
2023-09-10T17:25:29.657Z,27.80
2023-09-10T17:27:58.383Z,27.70
2023-09-10T17:30:26.118Z,27.50
2023-09-10T17:32:58.594Z,27.40
2023-09-10T17:35:26.046Z,27.30
2023-09-10T17:37:54.872Z,27.20
2023-09-10T17:40:23.598Z,27.00
2023-09-10T17:42:50.649Z,26.90
2023-09-10T17:45:17.933Z,26.70
2023-09-10T17:47:45.298Z,26.70
2023-09-10T17:50:12.434Z,26.60
2023-09-10T17:52:39.537Z,26.50
2023-09-10T17:55:07.210Z,26.40
2023-09-10T17:57:35.114Z,26.30
2023-09-10T18:00:04.524Z,26.20
2023-09-10T18:02:32.451Z,26.20
2023-09-10T18:05:01.284Z,26.10
2023-09-10T18:07:28.806Z,26.10
2023-09-10T18:09:56.246Z,26.00
2023-09-10T18:12:23.887Z,25.90
2023-09-10T18:14:52.066Z,25.80
2023-09-10T18:17:22.310Z,25.70
2023-09-10T18:19:49.825Z,25.70
2023-09-10T18:22:17.931Z,25.70
2023-09-10T18:24:45.782Z,25.60
2023-09-10T18:27:12.969Z,25.60
2023-09-10T18:29:41.432Z,25.50
2023-09-10T18:32:09.019Z,25.50
2023-09-10T18:34:36.197Z,25.50
2023-09-10T18:37:04.041Z,25.50
2023-09-10T18:39:31.333Z,25.40
2023-09-10T18:41:59.551Z,25.40
2023-09-10T18:44:27.742Z,25.40
2023-09-10T18:46:56.551Z,25.40
2023-09-10T18:49:24.516Z,25.30
2023-09-10T18:52:09.911Z,25.20
2023-09-10T18:54:40.282Z,25.10
2023-09-10T18:57:09.700Z,24.70
2023-09-10T18:59:37.088Z,24.60
2023-09-10T19:02:04.886Z,24.20
2023-09-10T19:04:35.107Z,24.20
2023-09-10T19:07:02.905Z,24.10
2023-09-10T19:09:31.374Z,24.00
2023-09-10T19:11:58.843Z,24.00
2023-09-10T19:14:26.846Z,23.90
2023-09-10T19:16:54.239Z,23.80
2023-09-10T19:19:21.964Z,23.60
2023-09-10T19:21:49.089Z,23.40
2023-09-10T19:24:16.546Z,23.40
2023-09-10T19:26:44.043Z,23.20
2023-09-10T19:29:11.551Z,23.20
2023-09-10T19:31:38.959Z,23.20
2023-09-10T19:34:06.229Z,23.10
2023-09-10T19:36:35.758Z,22.90
2023-09-10T19:39:13.820Z,22.90
2023-09-10T19:41:41.287Z,22.80
2023-09-10T19:44:09.366Z,22.80
2023-09-10T19:46:37.893Z,22.80
2023-09-10T19:49:06.762Z,22.80
2023-09-10T19:51:33.946Z,22.80
2023-09-10T19:54:01.533Z,22.90
2023-09-10T19:56:29.099Z,22.90
2023-09-10T19:59:11.879Z,23.00
2023-09-10T20:01:44.317Z,23.10
2023-09-10T20:04:13.121Z,23.10
2023-09-10T20:06:47.455Z,23.30
2023-09-10T20:09:14.691Z,23.40
2023-09-10T20:11:43.325Z,23.50
2023-09-10T20:14:10.818Z,23.50
2023-09-10T20:16:38.762Z,23.50
2023-09-10T20:19:06.300Z,23.60
2023-09-10T20:21:33.451Z,23.60
2023-09-10T20:24:02.523Z,23.60
2023-09-10T20:26:31.436Z,23.60
2023-09-10T20:28:59.022Z,23.60
2023-09-10T20:31:26.773Z,23.60
2023-09-10T20:33:54.283Z,23.50
2023-09-10T20:36:21.714Z,23.50
2023-09-10T20:38:49.123Z,23.40
2023-09-10T20:41:17.962Z,23.20
2023-09-10T20:43:46.286Z,23.10
2023-09-10T20:46:15.174Z,23.00
2023-09-10T20:48:42.625Z,22.90
2023-09-10T20:51:10.732Z,22.90
2023-09-10T20:53:39.356Z,22.90
2023-09-10T20:56:06.885Z,22.90
2023-09-10T20:58:34.507Z,22.90
2023-09-10T21:01:02.067Z,22.80
2023-09-10T21:03:32.461Z,22.80
2023-09-10T21:06:00.904Z,22.70
2023-09-10T21:08:29.449Z,22.50
2023-09-10T21:10:58.441Z,22.30
2023-09-10T21:13:26.085Z,22.30
2023-09-10T21:15:53.864Z,22.30
2023-09-10T21:18:21.323Z,22.10
2023-09-10T21:20:49.489Z,22.10
2023-09-10T21:23:17.411Z,22.10
2023-09-10T21:25:44.634Z,22.00
2023-09-10T21:28:12.153Z,21.90
2023-09-10T21:30:39.431Z,21.60
2023-09-10T21:33:06.964Z,21.40
2023-09-10T21:35:34.451Z,21.40
2023-09-10T21:38:01.740Z,21.40
2023-09-10T21:40:29.037Z,21.40
2023-09-10T21:42:56.224Z,21.20
2023-09-10T21:45:23.503Z,21.00
2023-09-10T21:47:52.801Z,20.90
2023-09-10T21:50:20.075Z,20.80
2023-09-10T21:52:47.062Z,20.70
2023-09-10T21:55:14.107Z,20.60
2023-09-10T21:57:41.598Z,20.50
2023-09-10T22:00:09.815Z,20.50
2023-09-10T22:02:37.166Z,20.40
2023-09-10T22:05:04.795Z,20.30
2023-09-10T22:07:32.522Z,20.10
2023-09-10T22:09:59.714Z,20.00
2023-09-10T22:12:26.865Z,20.00
2023-09-10T22:15:06.389Z,20.10
2023-09-10T22:17:33.503Z,20.00
2023-09-10T22:20:00.576Z,20.00
2023-09-10T22:22:27.837Z,20.00
2023-09-10T22:24:55.207Z,20.00
2023-09-10T22:27:22.856Z,20.00
2023-09-10T22:29:50.575Z,19.80
2023-09-10T22:32:18.364Z,19.60
2023-09-10T22:34:45.832Z,19.50
2023-09-10T22:37:13.752Z,19.40
2023-09-10T22:39:40.973Z,19.30
2023-09-10T22:42:09.262Z,19.20
2023-09-10T22:44:36.583Z,19.10
2023-09-10T22:47:03.969Z,19.10
2023-09-10T22:49:32.712Z,19.00
2023-09-10T22:52:00.321Z,19.10
2023-09-10T22:54:27.857Z,19.10
2023-09-10T22:56:55.012Z,19.10
2023-09-10T22:59:23.720Z,19.20
2023-09-10T23:01:50.884Z,19.10
2023-09-10T23:04:18.419Z,19.10
2023-09-10T23:06:47.141Z,19.10
2023-09-10T23:09:14.367Z,19.00
2023-09-10T23:11:41.682Z,18.90
2023-09-10T23:14:09.931Z,19.00
2023-09-10T23:16:37.580Z,19.00
2023-09-10T23:19:04.788Z,19.00
2023-09-10T23:21:31.965Z,19.00
2023-09-10T23:23:59.539Z,19.00
2023-09-10T23:26:27.160Z,18.90
2023-09-10T23:28:54.273Z,18.90
2023-09-10T23:31:21.753Z,18.90
2023-09-10T23:33:49.145Z,18.80
2023-09-10T23:36:17.493Z,18.80
2023-09-10T23:38:44.859Z,18.70
2023-09-10T23:41:12.448Z,18.70
2023-09-10T23:43:40.044Z,18.70
2023-09-10T23:46:08.678Z,18.70
2023-09-10T23:48:36.732Z,18.70
2023-09-10T23:51:04.106Z,18.70
2023-09-10T23:53:34.177Z,18.70
2023-09-10T23:56:01.276Z,18.70
2023-09-10T23:58:32.014Z,18.60
